createdAt,value
2017-05-21T00:00:34.840Z,64.18
2017-05-21T00:01:35.141Z,64.37
2017-05-21T00:02:34.828Z,64.28
2017-05-21T00:03:35.127Z,64.09
2017-05-21T00:04:34.818Z,64.65
2017-05-21T00:05:35.120Z,64.47
2017-05-21T00:06:35.113Z,64.37
2017-05-21T00:07:34.869Z,64.75
2017-05-21T00:08:35.103Z,65.13
2017-05-21T00:09:35.159Z,65.04
2017-05-21T00:10:35.096Z,65.04
2017-05-21T00:11:34.780Z,64.94
2017-05-21T00:12:35.083Z,64.94
2017-05-21T00:13:35.079Z,64.94
2017-05-21T00:14:35.072Z,65.23
2017-05-21T00:15:35.067Z,64.94
2017-05-21T00:16:35.062Z,64.85
2017-05-21T00:17:35.058Z,64.85
2017-05-21T00:18:34.748Z,64.37
2017-05-21T00:19:34.745Z,64.37
2017-05-21T00:20:35.043Z,64.75
2017-05-21T00:21:35.040Z,64.56
2017-05-21T00:22:35.032Z,64.47
2017-05-21T00:23:35.030Z,64.37
2017-05-21T00:24:34.717Z,64.28
2017-05-21T00:25:35.018Z,64.37
2017-05-21T00:26:34.708Z,64.28
2017-05-21T00:27:34.703Z,64.47
2017-05-21T00:28:34.695Z,64.47
2017-05-21T00:29:34.691Z,64.28
2017-05-21T00:30:34.686Z,64.28
2017-05-21T00:31:34.681Z,64.65
2017-05-21T00:32:34.676Z,64.75
2017-05-21T00:33:34.709Z,64.37
2017-05-21T00:34:34.665Z,64.37
2017-05-21T00:35:34.968Z,64.56
2017-05-21T00:36:34.961Z,64.47
2017-05-21T00:37:34.652Z,64.85
2017-05-21T00:38:34.647Z,65.13
2017-05-21T00:39:34.947Z,65.13
2017-05-21T00:40:34.944Z,64.94
2017-05-21T00:41:34.936Z,65.13
2017-05-21T00:42:34.626Z,64.85
2017-05-21T00:43:34.931Z,65.04
2017-05-21T00:44:34.924Z,64.94
2017-05-21T00:45:34.919Z,64.75
2017-05-21T00:46:34.911Z,65.04
2017-05-21T00:47:34.909Z,65.04
2017-05-21T00:48:34.903Z,65.52
2017-05-21T00:49:34.900Z,65.33
2017-05-21T00:50:34.588Z,65.7
2017-05-21T00:51:34.885Z,65.52
2017-05-21T00:52:34.882Z,65.23
2017-05-21T00:53:34.570Z,64.94
2017-05-21T00:54:34.567Z,64.94
2017-05-21T00:55:34.869Z,65.04
2017-05-21T00:56:34.556Z,64.85
2017-05-21T00:57:34.859Z,65.04
2017-05-21T00:58:34.860Z,64.85
2017-05-21T00:59:34.846Z,65.04
2017-05-21T01:00:34.542Z,65.04
2017-05-21T01:01:34.836Z,65.04
2017-05-21T01:02:34.525Z,64.47
2017-05-21T01:03:34.519Z,64.85
2017-05-21T01:04:34.820Z,65.04
2017-05-21T01:05:34.513Z,64.94
2017-05-21T01:06:34.504Z,64.75
2017-05-21T01:07:34.811Z,64.94
2017-05-21T01:08:34.496Z,65.33
2017-05-21T01:09:34.491Z,64.94
2017-05-21T01:10:34.483Z,64.65
2017-05-21T01:11:34.787Z,64.75
2017-05-21T01:12:34.778Z,64.85
2017-05-21T01:13:34.471Z,64.85
2017-05-21T01:14:34.772Z,64.85
2017-05-21T01:15:34.768Z,65.42
2017-05-21T01:16:34.454Z,65.52
2017-05-21T01:17:34.756Z,65.42
2017-05-21T01:18:34.443Z,65.39
2017-05-21T01:19:34.748Z,65.48
2017-05-21T01:20:34.434Z,65.39
2017-05-21T01:21:34.736Z,65.2
2017-05-21T01:22:34.730Z,65.2
2017-05-21T01:23:34.731Z,65.2
2017-05-21T01:24:34.412Z,65.2
2017-05-21T01:25:34.712Z,65.29
2017-05-21T01:26:34.402Z,65.39
2017-05-21T01:27:34.399Z,65.29
2017-05-21T01:28:34.394Z,64.91
2017-05-21T01:29:34.698Z,64.62
2017-05-21T01:30:34.384Z,64.72
2017-05-21T01:31:34.377Z,64.81
2017-05-21T01:32:34.371Z,64.81
2017-05-21T01:33:34.370Z,64.81
2017-05-21T01:34:34.670Z,64.91
2017-05-21T01:35:34.664Z,64.91
2017-05-21T01:36:34.352Z,64.91
2017-05-21T01:37:34.660Z,65
2017-05-21T01:38:34.350Z,64.91
2017-05-21T01:39:34.340Z,65.13
2017-05-21T01:40:34.334Z,65
2017-05-21T01:41:34.326Z,64.91
2017-05-21T01:42:34.628Z,64.91
2017-05-21T01:43:34.628Z,64.81
2017-05-21T01:44:34.621Z,64.81
2017-05-21T01:45:34.613Z,64.91
2017-05-21T01:46:34.606Z,65
2017-05-21T01:47:34.605Z,64.91
2017-05-21T01:48:34.296Z,64.65
2017-05-21T01:49:34.594Z,64.56
2017-05-21T01:50:34.282Z,64.24
2017-05-21T01:51:34.598Z,64.56
2017-05-21T01:52:34.579Z,64.34
2017-05-21T01:53:34.575Z,64.56
2017-05-21T01:54:34.567Z,64.65
2017-05-21T01:55:34.257Z,64.65
2017-05-21T01:56:34.556Z,64.62
2017-05-21T01:57:34.551Z,64.53
2017-05-21T01:58:34.552Z,64.43
2017-05-21T01:59:34.541Z,64.18
2017-05-21T02:00:34.536Z,64.62
2017-05-21T02:01:34.528Z,64.72
2017-05-21T02:02:34.527Z,64.24
2017-05-21T02:03:34.524Z,64.24
2017-05-21T02:04:34.514Z,64.24
2017-05-21T02:05:34.507Z,64.53
2017-05-21T02:06:34.503Z,64.34
2017-05-21T02:07:34.498Z,64.47
2017-05-21T02:08:34.495Z,64.53
2017-05-21T02:09:34.491Z,64.53
2017-05-21T02:10:34.482Z,64.53
2017-05-21T02:11:34.477Z,64.34
2017-05-21T02:12:34.474Z,64.34
2017-05-21T02:13:34.470Z,64.43
2017-05-21T02:14:34.158Z,64.53
2017-05-21T02:15:34.149Z,64.53
2017-05-21T02:16:34.449Z,64.24
2017-05-21T02:17:34.445Z,64.53
2017-05-21T02:18:34.140Z,64.24
2017-05-21T02:19:34.131Z,64.81
2017-05-21T02:20:34.429Z,64.72
2017-05-21T02:21:34.423Z,65.2
2017-05-21T02:22:34.172Z,64.91
2017-05-21T02:23:34.116Z,65.2
2017-05-21T02:24:34.413Z,65.2
2017-05-21T02:25:34.405Z,65.73
2017-05-21T02:26:34.400Z,65.83
2017-05-21T02:27:34.396Z,65.92
2017-05-21T02:28:34.392Z,66.5
2017-05-21T02:29:34.384Z,66.4
2017-05-21T02:30:34.379Z,67.07
2017-05-21T02:31:34.373Z,66.59
2017-05-21T02:32:34.367Z,66.94
2017-05-21T02:33:34.364Z,66.97
2017-05-21T02:34:34.358Z,67.32
2017-05-21T02:35:34.352Z,67.51
2017-05-21T02:36:34.347Z,67.22
2017-05-21T02:37:34.344Z,67.89
2017-05-21T02:38:34.337Z,67.7
2017-05-21T02:39:34.029Z,68.08
2017-05-21T02:40:34.325Z,67.89
2017-05-21T02:41:34.325Z,68.37
2017-05-21T02:42:34.010Z,68.08
2017-05-21T02:43:34.004Z,68.18
2017-05-21T02:44:34.307Z,68.27
2017-05-21T02:45:34.300Z,68.56
2017-05-21T02:46:34.297Z,68.75
2017-05-21T02:47:33.985Z,68.65
2017-05-21T02:48:34.286Z,68.94
2017-05-21T02:49:34.281Z,69.23
2017-05-21T02:50:34.272Z,68.65
2017-05-21T02:51:34.271Z,68.94
2017-05-21T02:52:33.956Z,69.89
2017-05-21T02:53:34.259Z,69.7
2017-05-21T02:54:33.948Z,69.6
2017-05-21T02:55:34.249Z,69.79
2017-05-21T02:56:34.245Z,69.6
2017-05-21T02:57:33.934Z,69.7
2017-05-21T02:58:33.929Z,69.85
2017-05-21T02:59:34.227Z,69.7
2017-05-21T03:00:34.222Z,70.27
2017-05-21T03:01:34.216Z,69.95
2017-05-21T03:02:34.213Z,70.05
2017-05-21T03:03:34.206Z,70.14
2017-05-21T03:04:34.203Z,70.62
2017-05-21T03:05:34.199Z,70.52
2017-05-21T03:06:34.190Z,70.43
2017-05-21T03:07:34.191Z,70.72
2017-05-21T03:08:34.186Z,70.62
2017-05-21T03:09:34.178Z,70.81
2017-05-21T03:10:34.170Z,71
2017-05-21T03:11:34.165Z,71.19
2017-05-21T03:12:34.163Z,71.38
2017-05-21T03:13:34.155Z,71.38
2017-05-21T03:14:34.151Z,71.38
2017-05-21T03:15:34.144Z,71.76
2017-05-21T03:16:34.143Z,71.76
2017-05-21T03:17:34.137Z,71.76
2017-05-21T03:18:34.131Z,72.05
2017-05-21T03:19:34.125Z,72.05
2017-05-21T03:20:34.118Z,72.05
2017-05-21T03:21:34.112Z,72.05
2017-05-21T03:22:34.108Z,72.05
2017-05-21T03:23:33.803Z,72.05
2017-05-21T03:24:34.101Z,71.95
2017-05-21T03:25:33.786Z,72.05
2017-05-21T03:26:34.087Z,71.95
2017-05-21T03:27:34.082Z,72.14
2017-05-21T03:28:34.076Z,72.42
2017-05-21T03:29:34.073Z,72.05
2017-05-21T03:30:34.066Z,72.14
2017-05-21T03:31:33.764Z,72.14
2017-05-21T03:32:33.749Z,72.05
2017-05-21T03:33:34.051Z,72.05
2017-05-21T03:34:34.047Z,72.14
2017-05-21T03:35:34.040Z,72.14
2017-05-21T03:36:34.036Z,72.37
2017-05-21T03:37:33.724Z,72.24
2017-05-21T03:38:34.025Z,72.05
2017-05-21T03:39:33.713Z,72.14
2017-05-21T03:40:34.014Z,72.17
2017-05-21T03:41:34.007Z,72.33
2017-05-21T03:42:34.005Z,72.37
2017-05-21T03:43:33.998Z,72.08
2017-05-21T03:44:33.993Z,71.8
2017-05-21T03:45:33.986Z,71.8
2017-05-21T03:46:33.980Z,71.32
2017-05-21T03:47:33.976Z,71.13
2017-05-21T03:48:33.974Z,70.84
2017-05-21T03:49:33.966Z,70.75
2017-05-21T03:50:33.962Z,70.84
2017-05-21T03:51:33.957Z,70.4
2017-05-21T03:52:33.950Z,69.83
2017-05-21T03:53:33.945Z,69.79
2017-05-21T03:54:33.636Z,69.74
2017-05-21T03:55:33.934Z,69.54
2017-05-21T03:56:33.929Z,68.98
2017-05-21T03:57:33.924Z,69.26
2017-05-21T03:58:33.918Z,68.78
2017-05-21T03:59:33.607Z,68.5
2017-05-21T04:00:33.604Z,68.4
2017-05-21T04:01:33.595Z,68.4
2017-05-21T04:02:33.900Z,68.78
2017-05-21T04:03:33.892Z,68.02
2017-05-21T04:04:33.892Z,67.93
2017-05-21T04:05:33.881Z,68.12
2017-05-21T04:06:33.878Z,68.05
2017-05-21T04:07:33.871Z,67.83
2017-05-21T04:08:33.866Z,67.68
2017-05-21T04:09:33.553Z,67.77
2017-05-21T04:10:33.856Z,67.58
2017-05-21T04:11:33.851Z,67.77
2017-05-21T04:12:33.844Z,67.68
2017-05-21T04:13:33.842Z,67.2
2017-05-21T04:14:33.836Z,66.82
2017-05-21T04:15:33.828Z,67.29
2017-05-21T04:16:33.826Z,66.53
2017-05-21T04:17:33.819Z,66.05
2017-05-21T04:18:33.814Z,66.24
2017-05-21T04:19:33.807Z,65.67
2017-05-21T04:20:33.799Z,65.39
2017-05-21T04:21:33.796Z,65.58
2017-05-21T04:22:33.790Z,64.91
2017-05-21T04:23:33.784Z,64.94
2017-05-21T04:24:33.780Z,64.65
2017-05-21T04:25:33.774Z,64.56
2017-05-21T04:26:33.465Z,64.37
2017-05-21T04:27:33.763Z,63.23
2017-05-21T04:28:33.762Z,62.97
2017-05-21T04:29:33.448Z,60.71
2017-05-21T04:30:33.752Z,59.98
2017-05-21T04:31:33.742Z,58.54
2017-05-21T04:32:33.742Z,56.85
2017-05-21T04:33:33.736Z,55.23
2017-05-21T04:34:33.727Z,55.07
2017-05-21T04:35:33.722Z,54.21
2017-05-21T04:36:33.718Z,54.11
2017-05-21T04:37:33.410Z,53.66
2017-05-21T04:38:33.399Z,52.99
2017-05-21T04:39:33.704Z,52.44
2017-05-21T04:40:33.700Z,51.29
2017-05-21T04:41:33.695Z,51.01
2017-05-21T04:42:33.688Z,49.88
2017-05-21T04:43:33.684Z,49.69
2017-05-21T04:44:33.680Z,50.34
2017-05-21T04:45:33.369Z,49.69
2017-05-21T04:46:33.672Z,49.21
2017-05-21T04:47:33.668Z,48.18
2017-05-21T04:48:33.661Z,47.99
2017-05-21T04:49:33.653Z,47.61
2017-05-21T04:50:33.649Z,46.94
2017-05-21T04:51:33.646Z,46.84
2017-05-21T04:52:33.640Z,46.46
2017-05-21T04:53:33.637Z,47.15
2017-05-21T04:54:33.634Z,46.39
2017-05-21T04:55:33.324Z,46
2017-05-21T04:56:33.625Z,45.72
2017-05-21T04:57:33.619Z,44.78
2017-05-21T04:58:33.618Z,44.97
2017-05-21T04:59:33.611Z,45.07
2017-05-21T05:00:33.607Z,44.87
2017-05-21T05:01:33.603Z,44.59
2017-05-21T05:02:33.293Z,44.49
2017-05-21T05:03:33.595Z,44.2
2017-05-21T05:04:33.587Z,43.55
2017-05-21T05:05:33.585Z,43.73
2017-05-21T05:06:33.581Z,43.63
2017-05-21T05:07:33.575Z,43.63
2017-05-21T05:08:33.572Z,43.63
2017-05-21T05:09:33.262Z,43.63
2017-05-21T05:10:33.566Z,43.07
2017-05-21T05:11:33.560Z,43.07
2017-05-21T05:12:33.252Z,42.4
2017-05-21T05:13:33.554Z,42.11
2017-05-21T05:14:33.547Z,41.73
2017-05-21T05:15:33.244Z,41.93
2017-05-21T05:16:33.543Z,41.56
2017-05-21T05:17:33.542Z,41.75
2017-05-21T05:18:33.535Z,40.81
2017-05-21T05:19:33.533Z,40.14
2017-05-21T05:20:33.532Z,39.01
2017-05-21T05:21:33.524Z,39.01
2017-05-21T05:22:33.521Z,38.53
2017-05-21T05:23:33.521Z,38.62
2017-05-21T05:24:33.209Z,39.08
2017-05-21T05:25:33.512Z,39.28
2017-05-21T05:26:33.510Z,39.47
2017-05-21T05:27:33.506Z,39.76
2017-05-21T05:28:33.507Z,39.47
2017-05-21T05:29:33.194Z,38.89
2017-05-21T05:30:33.499Z,39.18
2017-05-21T05:31:33.495Z,39.08
2017-05-21T05:32:33.187Z,38.89
2017-05-21T05:33:33.491Z,38.99
2017-05-21T05:34:33.180Z,39.28
2017-05-21T05:35:33.487Z,38.62
2017-05-21T05:36:33.483Z,39.56
2017-05-21T05:37:33.481Z,39.18
2017-05-21T05:38:33.479Z,38.89
2017-05-21T05:39:33.476Z,39.66
2017-05-21T05:40:33.476Z,38.99
2017-05-21T05:41:33.470Z,39.37
2017-05-21T05:42:33.166Z,39.28
2017-05-21T05:43:33.470Z,38.6
2017-05-21T05:44:33.468Z,38.62
2017-05-21T05:45:33.468Z,38.24
2017-05-21T05:46:33.465Z,37.77
2017-05-21T05:47:33.459Z,37.3
2017-05-21T05:48:33.462Z,37.77
2017-05-21T05:49:33.464Z,38.45
2017-05-21T05:50:33.151Z,37.87
2017-05-21T05:51:33.457Z,38.24
2017-05-21T05:52:33.454Z,38.24
2017-05-21T05:53:33.453Z,37.95
2017-05-21T05:54:33.455Z,37.95
2017-05-21T05:55:33.146Z,38.16
2017-05-21T05:56:33.450Z,37.76
2017-05-21T05:57:33.451Z,38.43
2017-05-21T05:58:33.452Z,38.24
2017-05-21T05:59:33.451Z,38.62
2017-05-21T06:00:33.452Z,38.62
2017-05-21T06:01:33.450Z,38.34
2017-05-21T06:02:33.447Z,38.43
2017-05-21T06:03:33.450Z,38.7
2017-05-21T06:04:33.447Z,37.95
2017-05-21T06:05:33.449Z,38.24
2017-05-21T06:06:33.450Z,38.72
2017-05-21T06:07:33.450Z,38.53
2017-05-21T06:08:33.452Z,37.37
2017-05-21T06:09:33.143Z,37.1
2017-05-21T06:10:33.452Z,37.01
2017-05-21T06:11:33.451Z,36.83
2017-05-21T06:12:33.450Z,36.35
2017-05-21T06:13:33.451Z,35.77
2017-05-21T06:14:33.453Z,36.45
2017-05-21T06:15:33.453Z,36.05
2017-05-21T06:16:33.146Z,36.43
2017-05-21T06:17:33.454Z,37.49
2017-05-21T06:18:33.457Z,37.01
2017-05-21T06:19:33.524Z,37.2
2017-05-21T06:20:33.152Z,37.39
2017-05-21T06:21:33.465Z,37.59
2017-05-21T06:22:33.466Z,37.02
2017-05-21T06:23:33.461Z,35.97
2017-05-21T06:24:33.464Z,35.12
2017-05-21T06:25:33.465Z,35.12
2017-05-21T06:26:33.467Z,35.12
2017-05-21T06:27:33.468Z,35.22
2017-05-21T06:28:33.469Z,35.31
2017-05-21T06:29:33.474Z,35.22
2017-05-21T06:30:33.475Z,35.22
2017-05-21T06:31:33.168Z,35.41
2017-05-21T06:32:33.530Z,35.04
2017-05-21T06:33:33.176Z,35.14
2017-05-21T06:34:33.482Z,34.56
2017-05-21T06:35:33.482Z,34.56
2017-05-21T06:36:33.181Z,34.75
2017-05-21T06:37:33.490Z,34.37
2017-05-21T06:38:33.186Z,34.75
2017-05-21T06:39:33.188Z,34.94
2017-05-21T06:40:33.497Z,34.77
2017-05-21T06:41:33.501Z,34.29
2017-05-21T06:42:33.505Z,34
2017-05-21T06:43:33.503Z,33.82
2017-05-21T06:44:33.509Z,33.91
2017-05-21T06:45:33.510Z,34.48
2017-05-21T06:46:33.515Z,34.58
2017-05-21T06:47:33.514Z,34.77
2017-05-21T06:48:33.519Z,34.77
2017-05-21T06:49:33.213Z,34.58
2017-05-21T06:50:33.523Z,35.14
2017-05-21T06:51:33.530Z,35.14
2017-05-21T06:52:33.531Z,34.29
2017-05-21T06:53:33.532Z,34.38
2017-05-21T06:54:33.538Z,34.11
2017-05-21T06:55:33.539Z,33.92
2017-05-21T06:56:33.542Z,34.38
2017-05-21T06:57:33.546Z,34.3
2017-05-21T06:58:33.546Z,34.3
2017-05-21T06:59:33.552Z,34.3
2017-05-21T07:00:33.552Z,34.98
2017-05-21T07:01:33.558Z,35.06
2017-05-21T07:02:33.560Z,34.01
2017-05-21T07:03:33.563Z,34.01
2017-05-21T07:04:33.564Z,33.73
2017-05-21T07:05:33.621Z,33.84
2017-05-21T07:06:33.569Z,33.74
2017-05-21T07:07:33.572Z,32.89
2017-05-21T07:08:33.573Z,32.99
2017-05-21T07:09:33.579Z,32.7
2017-05-21T07:10:33.586Z,32.41
2017-05-21T07:11:33.580Z,32.41
2017-05-21T07:12:33.588Z,32.7
2017-05-21T07:13:33.585Z,32.89
2017-05-21T07:14:33.283Z,32.79
2017-05-21T07:15:33.591Z,32.41
2017-05-21T07:16:33.590Z,32.41
2017-05-21T07:17:33.285Z,32.79
2017-05-21T07:18:33.597Z,32.51
2017-05-21T07:19:33.594Z,32.59
2017-05-21T07:20:33.291Z,32.68
2017-05-21T07:21:33.598Z,32.68
2017-05-21T07:22:33.299Z,32.78
2017-05-21T07:23:33.296Z,32.79
2017-05-21T07:24:33.603Z,32.68
2017-05-21T07:25:33.300Z,32.6
2017-05-21T07:26:33.607Z,32.7
2017-05-21T07:27:33.609Z,31.73
2017-05-21T07:28:33.605Z,31.37
2017-05-21T07:29:33.606Z,31.06
2017-05-21T07:30:33.607Z,31.25
2017-05-21T07:31:33.606Z,32.03
2017-05-21T07:32:33.303Z,31.83
2017-05-21T07:33:33.608Z,31.35
2017-05-21T07:34:33.607Z,31.73
2017-05-21T07:35:33.609Z,31.63
2017-05-21T07:36:33.608Z,31.65
2017-05-21T07:37:33.609Z,31.27
2017-05-21T07:38:33.609Z,31.17
2017-05-21T07:39:33.609Z,30.99
2017-05-21T07:40:33.606Z,31.56
2017-05-21T07:41:33.604Z,31.46
2017-05-21T07:42:33.606Z,31.65
2017-05-21T07:43:33.607Z,30.9
2017-05-21T07:44:33.607Z,30.61
2017-05-21T07:45:33.298Z,31.07
2017-05-21T07:46:33.604Z,30.79
2017-05-21T07:47:33.603Z,31.83
2017-05-21T07:48:33.605Z,31.06
2017-05-21T07:49:33.602Z,31.45
2017-05-21T07:50:33.599Z,31.56
2017-05-21T07:51:33.601Z,30.69
2017-05-21T07:52:33.599Z,30.59
2017-05-21T07:53:33.596Z,30.41
2017-05-21T07:54:33.596Z,29.93
2017-05-21T07:55:33.599Z,30.32
2017-05-21T07:56:33.592Z,31.09
2017-05-21T07:57:33.592Z,31.07
2017-05-21T07:58:33.591Z,30.88
2017-05-21T07:59:33.282Z,30.98
2017-05-21T08:00:33.283Z,31.37
2017-05-21T08:01:33.589Z,30.49
2017-05-21T08:02:33.588Z,30.03
2017-05-21T08:03:33.585Z,29.75
2017-05-21T08:04:33.276Z,29.94
2017-05-21T08:05:33.579Z,29.47
2017-05-21T08:06:33.577Z,28.23
2017-05-21T08:07:33.577Z,28.22
2017-05-21T08:08:33.267Z,28.22
2017-05-21T08:09:33.574Z,28.7
2017-05-21T08:10:33.573Z,29.19
2017-05-21T08:11:33.568Z,28.88
2017-05-21T08:12:33.565Z,29.09
2017-05-21T08:13:33.582Z,28.78
2017-05-21T08:14:33.563Z,29.08
2017-05-21T08:15:33.560Z,29.36
2017-05-21T08:16:33.559Z,29.36
2017-05-21T08:17:33.560Z,28.51
2017-05-21T08:18:33.556Z,27.64
2017-05-21T08:19:33.551Z,27.66
2017-05-21T08:20:33.553Z,28.51
2017-05-21T08:21:33.549Z,28.03
2017-05-21T08:22:33.545Z,28.5
2017-05-21T08:23:33.544Z,28.98
2017-05-21T08:24:33.540Z,28.5
2017-05-21T08:25:33.538Z,28.3
2017-05-21T08:26:33.536Z,27.83
2017-05-21T08:27:33.532Z,28.59
2017-05-21T08:28:33.225Z,28.5
2017-05-21T08:29:33.533Z,28.39
2017-05-21T08:30:33.528Z,29.06
2017-05-21T08:31:33.525Z,29.43
2017-05-21T08:32:33.519Z,28.95
2017-05-21T08:33:33.520Z,29.14
2017-05-21T08:34:33.515Z,29.45
2017-05-21T08:35:33.204Z,29.35
2017-05-21T08:36:33.201Z,28.97
2017-05-21T08:37:33.201Z,28.85
2017-05-21T08:38:33.504Z,29.61
2017-05-21T08:39:33.502Z,30.77
2017-05-21T08:40:33.498Z,32.1
2017-05-21T08:41:33.190Z,32.67
2017-05-21T08:42:33.494Z,32.94
2017-05-21T08:43:33.487Z,34.17
2017-05-21T08:44:33.487Z,35.22
2017-05-21T08:45:33.485Z,35.79
2017-05-21T08:46:33.175Z,35.68
2017-05-21T08:47:33.173Z,37.12
2017-05-21T08:48:33.170Z,38.07
2017-05-21T08:49:33.468Z,37.77
2017-05-21T08:50:33.468Z,38.26
2017-05-21T08:51:33.464Z,38.45
2017-05-21T08:52:33.460Z,37.97
2017-05-21T08:53:33.458Z,38.45
2017-05-21T08:54:33.454Z,38.43
2017-05-21T08:55:33.483Z,37.76
2017-05-21T08:56:33.451Z,38.62
2017-05-21T08:57:33.140Z,38.43
2017-05-21T08:58:33.440Z,38.32
2017-05-21T08:59:33.439Z,38.02
2017-05-21T09:00:33.436Z,38.41
2017-05-21T09:01:33.430Z,38.51
2017-05-21T09:02:33.429Z,37.91
2017-05-21T09:03:33.425Z,38.51
2017-05-21T09:04:33.422Z,39.26
2017-05-21T09:05:33.418Z,39.45
2017-05-21T09:06:33.111Z,39.26
2017-05-21T09:07:33.412Z,39.16
2017-05-21T09:08:33.409Z,39.35
2017-05-21T09:09:33.097Z,39.16
2017-05-21T09:10:33.097Z,39.26
2017-05-21T09:11:33.401Z,39.45
2017-05-21T09:12:33.089Z,39.76
2017-05-21T09:13:33.395Z,39.76
2017-05-21T09:14:33.390Z,39.66
2017-05-21T09:15:33.385Z,39.95
2017-05-21T09:16:33.383Z,39.56
2017-05-21T09:17:33.378Z,39.37
2017-05-21T09:18:33.380Z,38.99
2017-05-21T09:19:33.373Z,39.37
2017-05-21T09:20:33.368Z,40.52
2017-05-21T09:21:33.367Z,39.85
2017-05-21T09:22:33.361Z,39.85
2017-05-21T09:23:33.360Z,39.37
2017-05-21T09:24:33.354Z,39.56
2017-05-21T09:25:33.350Z,40.14
2017-05-21T09:26:33.346Z,39.85
2017-05-21T09:27:33.346Z,40.05
2017-05-21T09:28:33.341Z,39.85
2017-05-21T09:29:33.339Z,39.95
2017-05-21T09:30:33.333Z,40.5
2017-05-21T09:31:33.331Z,40.33
2017-05-21T09:32:33.328Z,39.76
2017-05-21T09:33:33.322Z,39.08
2017-05-21T09:34:33.321Z,39.37
2017-05-21T09:35:33.326Z,39.56
2017-05-21T09:36:33.316Z,40.05
2017-05-21T09:37:33.005Z,40.72
2017-05-21T09:38:33.306Z,40.05
2017-05-21T09:39:32.998Z,39.95
2017-05-21T09:40:33.300Z,39.56
2017-05-21T09:41:32.988Z,40.14
2017-05-21T09:42:32.985Z,40.91
2017-05-21T09:43:33.289Z,41.87
2017-05-21T09:44:33.284Z,40.62
2017-05-21T09:45:33.283Z,40.72
2017-05-21T09:46:32.970Z,41.67
2017-05-21T09:47:33.277Z,41.87
2017-05-21T09:48:33.276Z,41.08
2017-05-21T09:49:33.268Z,41.29
2017-05-21T09:50:33.265Z,41.2
2017-05-21T09:51:33.261Z,40.14
2017-05-21T09:52:32.949Z,39.64
2017-05-21T09:53:33.254Z,39.28
2017-05-21T09:54:33.250Z,39.26
2017-05-21T09:55:32.943Z,39.28
2017-05-21T09:56:33.242Z,39.37
2017-05-21T09:57:33.240Z,38.99
2017-05-21T09:58:32.929Z,39.18
2017-05-21T09:59:32.924Z,38.89
2017-05-21T10:00:33.227Z,38.99
2017-05-21T10:01:32.918Z,39.66
2017-05-21T10:02:33.222Z,39.66
2017-05-21T10:03:33.216Z,39.47
2017-05-21T10:04:32.907Z,39.28
2017-05-21T10:05:33.211Z,38.02
2017-05-21T10:06:32.901Z,38.41
2017-05-21T10:07:32.899Z,39.28
2017-05-21T10:08:32.892Z,38.41
2017-05-21T10:09:32.889Z,38.22
2017-05-21T10:10:32.886Z,38.59
2017-05-21T10:11:33.187Z,38.12
2017-05-21T10:12:32.880Z,39.18
2017-05-21T10:13:32.878Z,39.37
2017-05-21T10:14:33.180Z,39.08
2017-05-21T10:15:33.173Z,39.28
2017-05-21T10:16:33.175Z,38.99
2017-05-21T10:17:33.167Z,37.74
2017-05-21T10:18:33.162Z,37.64
2017-05-21T10:19:32.855Z,38.6
2017-05-21T10:20:33.160Z,39.47
2017-05-21T10:21:32.846Z,38.32
2017-05-21T10:22:33.147Z,37.84
2017-05-21T10:23:32.843Z,38.02
2017-05-21T10:24:32.837Z,37.93
2017-05-21T10:25:33.137Z,37.16
2017-05-21T10:26:32.828Z,37.74
2017-05-21T10:27:33.132Z,37.07
2017-05-21T10:28:33.126Z,36.97
2017-05-21T10:29:33.121Z,37.64
2017-05-21T10:30:33.119Z,36.97
2017-05-21T10:31:33.118Z,36.88
2017-05-21T10:32:33.115Z,37.64
2017-05-21T10:33:33.108Z,37.84
2017-05-21T10:34:33.105Z,37.16
2017-05-21T10:35:33.101Z,37.45
2017-05-21T10:36:33.101Z,36.88
2017-05-21T10:37:33.094Z,37.26
2017-05-21T10:38:33.091Z,37.84
2017-05-21T10:39:33.088Z,38.22
2017-05-21T10:40:33.110Z,37.18
2017-05-21T10:41:33.080Z,36.03
2017-05-21T10:42:33.077Z,36.32
2017-05-21T10:43:33.070Z,36.99
2017-05-21T10:44:33.076Z,37.08
2017-05-21T10:45:33.068Z,37.08
2017-05-21T10:46:33.064Z,37.08
2017-05-21T10:47:33.056Z,36.8
2017-05-21T10:48:33.054Z,37.57
2017-05-21T10:49:33.052Z,37.37
2017-05-21T10:50:32.740Z,37.47
2017-05-21T10:51:33.042Z,37.37
2017-05-21T10:52:33.038Z,37.18
2017-05-21T10:53:33.035Z,37.08
2017-05-21T10:54:33.030Z,37.08
2017-05-21T10:55:33.028Z,36.3
2017-05-21T10:56:33.025Z,36.4
2017-05-21T10:57:33.021Z,36.01
2017-05-21T10:58:33.015Z,36.78
2017-05-21T10:59:33.011Z,36.58
2017-05-21T11:00:33.057Z,36.11
2017-05-21T11:01:32.697Z,36.2
2017-05-21T11:02:32.999Z,36.22
2017-05-21T11:03:32.997Z,36.2
2017-05-21T11:04:32.996Z,36.7
2017-05-21T11:05:32.989Z,36.7
2017-05-21T11:06:32.985Z,36.51
2017-05-21T11:07:32.984Z,37.18
2017-05-21T11:08:32.982Z,35.64
2017-05-21T11:09:32.977Z,35.36
2017-05-21T11:10:32.972Z,34.59
2017-05-21T11:11:32.970Z,35.26
2017-05-21T11:12:32.966Z,35.26
2017-05-21T11:13:32.962Z,35.06
2017-05-21T11:14:32.959Z,34.68
2017-05-21T11:15:32.955Z,34.39
2017-05-21T11:16:32.648Z,34.8
2017-05-21T11:17:32.947Z,35.08
2017-05-21T11:18:32.945Z,34.89
2017-05-21T11:19:32.939Z,34.61
2017-05-21T11:20:32.938Z,34.51
2017-05-21T11:21:32.931Z,33.64
2017-05-21T11:22:32.929Z,33.84
2017-05-21T11:23:32.925Z,32.87
2017-05-21T11:24:32.922Z,32.87
2017-05-21T11:25:32.928Z,32.78
2017-05-21T11:26:32.914Z,32.59
2017-05-21T11:27:32.912Z,32.59
2017-05-21T11:28:32.906Z,32.87
2017-05-21T11:29:32.903Z,32.59
2017-05-21T11:30:32.897Z,32.3
2017-05-21T11:31:32.898Z,32.2
2017-05-21T11:32:32.587Z,31.62
2017-05-21T11:33:32.888Z,32.39
2017-05-21T11:34:32.888Z,32.2
2017-05-21T11:35:32.879Z,32.59
2017-05-21T11:36:32.879Z,31.82
2017-05-21T11:37:32.875Z,32.39
2017-05-21T11:38:32.879Z,32.59
2017-05-21T11:39:32.868Z,32.78
2017-05-21T11:40:32.864Z,31.64
2017-05-21T11:41:32.858Z,31.16
2017-05-21T11:42:32.856Z,31.45
2017-05-21T11:43:32.565Z,30.97
2017-05-21T11:44:32.546Z,30.39
2017-05-21T11:45:32.537Z,30.39
2017-05-21T11:46:32.838Z,31.06
2017-05-21T11:47:32.838Z,31.16
2017-05-21T11:48:32.832Z,31.15
2017-05-21T11:49:32.832Z,31.92
2017-05-21T11:50:32.825Z,32.2
2017-05-21T11:51:32.823Z,32.1
2017-05-21T11:52:32.517Z,32.39
2017-05-21T11:53:32.814Z,32.59
2017-05-21T11:54:32.813Z,32.41
2017-05-21T11:55:32.503Z,31.74
2017-05-21T11:56:32.807Z,31.54
2017-05-21T11:57:32.801Z,31.83
2017-05-21T11:58:32.799Z,31.45
2017-05-21T11:59:32.490Z,31.54
2017-05-21T12:00:32.795Z,31.54
2017-05-21T12:01:32.789Z,32.12
2017-05-21T12:02:32.789Z,31.74
2017-05-21T12:03:32.783Z,31.45
2017-05-21T12:04:32.781Z,31.46
2017-05-21T12:05:32.469Z,31.56
2017-05-21T12:06:32.465Z,31.16
2017-05-21T12:07:32.769Z,31.26
2017-05-21T12:08:32.459Z,31.45
2017-05-21T12:09:32.456Z,31.64
2017-05-21T12:10:32.453Z,31.64
2017-05-21T12:11:32.755Z,31.83
2017-05-21T12:12:32.753Z,31.74
2017-05-21T12:13:32.752Z,32.04
2017-05-21T12:14:32.441Z,31.85
2017-05-21T12:15:32.742Z,31.56
2017-05-21T12:16:32.432Z,31.64
2017-05-21T12:17:32.432Z,31.83
2017-05-21T12:18:32.732Z,32.12
2017-05-21T12:19:32.727Z,32.14
2017-05-21T12:20:32.726Z,32.43
2017-05-21T12:21:32.726Z,32.43
2017-05-21T12:22:32.728Z,31.65
2017-05-21T12:23:32.715Z,31.56
2017-05-21T12:24:32.716Z,31.85
2017-05-21T12:25:32.714Z,31.46
2017-05-21T12:26:32.708Z,31.46
2017-05-21T12:27:32.398Z,31.56
2017-05-21T12:28:32.701Z,31.65
2017-05-21T12:29:32.705Z,32.43
2017-05-21T12:30:32.699Z,32.43
2017-05-21T12:31:32.388Z,32.71
2017-05-21T12:32:32.688Z,32.33
2017-05-21T12:33:32.684Z,31.95
2017-05-21T12:34:32.684Z,31.75
2017-05-21T12:35:32.678Z,32.43
2017-05-21T12:36:32.676Z,32.33
2017-05-21T12:37:32.678Z,31.46
2017-05-21T12:38:32.366Z,30.98
2017-05-21T12:39:32.669Z,30.79
2017-05-21T12:40:32.665Z,31.56
2017-05-21T12:41:32.662Z,31.65
2017-05-21T12:42:32.659Z,32.71
2017-05-21T12:43:32.351Z,32.62
2017-05-21T12:44:32.658Z,33
2017-05-21T12:45:32.650Z,32.81
2017-05-21T12:46:32.645Z,33
2017-05-21T12:47:32.643Z,32.9
2017-05-21T12:48:32.643Z,33.1
2017-05-21T12:49:32.644Z,32.9
2017-05-21T12:50:32.637Z,32.81
2017-05-21T12:51:32.630Z,33
2017-05-21T12:52:32.629Z,32.9
2017-05-21T12:53:32.319Z,33.08
2017-05-21T12:54:32.626Z,32.89
2017-05-21T12:55:32.310Z,32.6